Time;durP1;ratioP1;P1;durP2;ratioP2;P2;SDS_P1;SDS_P2;PMS_P1;PMS_P2;Temp;Humidity;BMP_temperature;BMP_pressure;BME280_temperature;BME280_humidity;BME280_pressure;Samples;Min_cycle;Max_cycle;Signal;HPM_P1;HPM_P2
2023/11/04 00:01:34;;;;;;;0.57;0.10;;;7.20;99.90;;;;;;4982485;28;20165;-86
2023/11/04 00:03:59;;;;;;;0.10;0.00;;;7.20;99.90;;;;;;5011400;28;20030;-86
2023/11/04 00:06:25;;;;;;;0.40;0.10;;;7.30;99.90;;;;;;5013647;28;20374;-88
2023/11/04 00:08:52;;;;;;;0.95;0.10;;;7.30;99.90;;;;;;4985414;28;20025;-89
2023/11/04 00:11:18;;;;;;;1.05;0.10;;;7.40;99.90;;;;;;4998599;28;20070;-86
2023/11/04 00:13:44;;;;;;;0.25;0.03;;;7.50;99.90;;;;;;5002929;28;20038;-86
2023/11/04 00:16:10;;;;;;;0.50;0.00;;;7.50;99.90;;;;;;5001379;28;20027;-86
2023/11/04 00:18:36;;;;;;;0.55;0.10;;;7.50;99.90;;;;;;4999907;28;20367;-85
2023/11/04 00:21:02;;;;;;;0.50;0.05;;;7.60;99.90;;;;;;5001009;28;20065;-87
2023/11/04 00:23:27;;;;;;;0.40;0.10;;;7.60;99.90;;;;;;5002637;28;20475;-86
2023/11/04 00:25:53;;;;;;;0.43;0.00;;;7.60;99.90;;;;;;4997607;28;20035;-85
2023/11/04 00:28:19;;;;;;;0.90;0.10;;;7.60;99.90;;;;;;5000162;28;20463;-84
2023/11/04 00:30:45;;;;;;;0.85;0.10;;;7.70;99.90;;;;;;5013744;28;20209;-86
2023/11/04 00:33:11;;;;;;;0.73;0.10;;;7.70;99.90;;;;;;5015127;28;20019;-85
2023/11/04 00:35:36;;;;;;;0.45;0.10;;;7.70;99.90;;;;;;4999354;28;20030;-87
2023/11/04 00:38:02;;;;;;;0.20;0.00;;;7.70;99.90;;;;;;4998984;28;20038;-86
2023/11/04 00:40:28;;;;;;;1.38;0.10;;;7.80;99.90;;;;;;5013365;28;20034;-84
2023/11/04 00:42:54;;;;;;;1.05;0.03;;;7.90;99.90;;;;;;4985730;28;20027;-88
2023/11/04 00:45:19;;;;;;;0.50;0.10;;;7.90;99.90;;;;;;4988208;28;20041;-82
2023/11/04 00:47:45;;;;;;;0.32;0.05;;;7.90;99.90;;;;;;5000326;28;20037;-85
2023/11/04 00:50:11;;;;;;;0.75;0.10;;;8.00;99.90;;;;;;5014761;28;20027;-87
2023/11/04 00:52:37;;;;;;;2.40;0.10;;;8.00;99.90;;;;;;5015106;28;20077;-83
2023/11/04 00:55:03;;;;;;;1.05;0.30;;;8.10;99.90;;;;;;4990555;28;20023;-84
2023/11/04 00:57:28;;;;;;;0.55;0.10;;;8.10;99.90;;;;;;5015606;28;20030;-85
2023/11/04 00:59:54;;;;;;;0.85;0.10;;;8.20;99.90;;;;;;4993755;28;20039;-87
2023/11/04 01:02:20;;;;;;;0.50;0.10;;;8.20;99.90;;;;;;5016116;28;20022;-85
2023/11/04 01:04:45;;;;;;;0.55;0.10;;;8.20;99.90;;;;;;5014204;28;20027;-86
2023/11/04 01:07:11;;;;;;;1.33;0.10;;;8.20;99.90;;;;;;5001497;28;20486;-84
2023/11/04 01:09:37;;;;;;;0.60;0.10;;;8.20;99.90;;;;;;5003420;28;20397;-87
2023/11/04 01:12:04;;;;;;;0.60;0.10;;;8.20;99.90;;;;;;4984982;28;20023;-84
2023/11/04 01:14:30;;;;;;;1.13;0.20;;;8.30;99.90;;;;;;4983542;28;20142;-83
2023/11/04 01:16:55;;;;;;;0.77;0.20;;;8.30;99.90;;;;;;5003644;28;20136;-87
2023/11/04 01:19:21;;;;;;;2.05;0.20;;;8.30;99.90;;;;;;5015601;28;20113;-85
2023/11/04 01:21:48;;;;;;;1.60;0.10;;;8.30;99.90;;;;;;5011875;28;20108;-86
2023/11/04 01:24:14;;;;;;;0.35;0.10;;;8.30;99.90;;;;;;5003897;28;20026;-84
2023/11/04 01:26:40;;;;;;;1.02;0.10;;;8.30;99.90;;;;;;5003824;28;20072;-86
2023/11/04 01:29:06;;;;;;;3.33;0.40;;;8.40;99.90;;;;;;5000517;28;20042;-84
2023/11/04 01:31:32;;;;;;;1.00;0.20;;;8.40;99.90;;;;;;5001417;28;20041;-84
2023/11/04 01:33:57;;;;;;;0.47;0.10;;;8.40;99.90;;;;;;5013801;28;20030;-83
2023/11/04 01:36:23;;;;;;;0.35;0.10;;;8.40;99.90;;;;;;4998290;28;20037;-84
2023/11/04 01:38:49;;;;;;;0.73;0.10;;;8.40;99.90;;;;;;4997660;28;20502;-83
2023/11/04 01:41:15;;;;;;;0.60;0.10;;;8.40;99.90;;;;;;4985961;28;20039;-83
2023/11/04 01:43:42;;;;;;;1.30;0.20;;;8.40;99.90;;;;;;4981235;28;20037;-85
2023/11/04 01:46:09;;;;;;;1.90;0.20;;;8.40;99.90;;;;;;5011038;28;20034;-83
2023/11/04 01:48:42;;;;;;;0.40;0.10;;;8.40;99.90;;;;;;4996805;28;20033;-86
2023/11/04 01:51:09;;;;;;;1.70;0.10;;;8.40;99.90;;;;;;4996248;28;20311;-86
2023/11/04 01:53:36;;;;;;;0.70;0.10;;;8.40;99.90;;;;;;4998743;28;20027;-84
2023/11/04 01:56:05;;;;;;;0.25;0.10;;;8.40;99.90;;;;;;5001371;28;20502;-85
2023/11/04 01:58:32;;;;;;;0.43;0.10;;;8.40;99.90;;;;;;5009050;28;20035;-87
2023/11/04 02:01:00;;;;;;;0.75;0.10;;;8.40;99.90;;;;;;4983267;28;20486;-82
2023/11/04 02:03:27;;;;;;;0.30;0.10;;;8.50;99.90;;;;;;4997512;28;20076;-83
2023/11/04 02:05:53;;;;;;;0.40;0.10;;;8.50;99.90;;;;;;5010980;28;20035;-85
2023/11/04 02:08:19;;;;;;;0.70;0.03;;;8.40;99.90;;;;;;5012850;28;20029;-84
2023/11/04 02:10:46;;;;;;;0.20;0.10;;;8.50;99.90;;;;;;5014826;28;20060;-83
2023/11/04 02:13:12;;;;;;;3.20;0.10;;;8.50;99.90;;;;;;5009536;28;20471;-83
2023/11/04 02:15:37;;;;;;;0.43;0.10;;;8.50;99.90;;;;;;5009150;28;20046;-83
2023/11/04 02:18:03;;;;;;;3.38;0.20;;;8.60;99.90;;;;;;5012628;28;20033;-84
2023/11/04 02:20:33;;;;;;;0.77;0.10;;;8.50;99.90;;;;;;4995856;28;20505;-82
2023/11/04 02:22:58;;;;;;;0.40;0.10;;;8.60;99.90;;;;;;4999049;28;20462;-85
2023/11/04 02:25:33;;;;;;;0.30;0.10;;;8.50;99.90;;;;;;5003247;28;20114;-84
2023/11/04 02:27:59;;;;;;;1.05;0.20;;;8.60;99.90;;;;;;4981527;28;20026;-84
2023/11/04 02:30:25;;;;;;;0.70;0.10;;;8.60;99.90;;;;;;4973104;28;20433;-84
2023/11/04 02:32:51;;;;;;;0.60;0.10;;;8.60;99.90;;;;;;5012764;28;20027;-89
2023/11/04 02:35:16;;;;;;;1.15;0.10;;;8.60;99.90;;;;;;5012470;28;20031;-85
2023/11/04 02:37:42;;;;;;;1.35;0.10;;;8.60;99.90;;;;;;5001604;28;20031;-85
2023/11/04 02:40:11;;;;;;;1.00;0.10;;;8.70;99.90;;;;;;5012142;28;20042;-84
2023/11/04 02:42:37;;;;;;;0.82;0.10;;;8.60;99.90;;;;;;5011570;28;20034;-88
2023/11/04 02:45:04;;;;;;;0.47;0.10;;;8.60;99.90;;;;;;5011483;28;20619;-87
2023/11/04 02:47:30;;;;;;;0.38;0.10;;;8.70;99.90;;;;;;5003829;28;20078;-84
2023/11/04 02:49:56;;;;;;;0.82;0.10;;;8.70;99.90;;;;;;5012426;28;20128;-88
2023/11/04 02:52:22;;;;;;;0.75;0.10;;;8.70;99.90;;;;;;5010320;28;20189;-83
2023/11/04 02:54:47;;;;;;;0.38;0.10;;;8.70;99.90;;;;;;4999247;28;20034;-85
2023/11/04 02:57:13;;;;;;;1.98;0.20;;;8.70;99.90;;;;;;4983491;28;20112;-83
2023/11/04 02:59:39;;;;;;;0.60;0.10;;;8.70;99.90;;;;;;5010389;28;20058;-85
2023/11/04 03:02:05;;;;;;;1.20;0.17;;;8.80;99.90;;;;;;4983298;28;20027;-87
2023/11/04 03:04:31;;;;;;;0.88;0.20;;;8.80;99.90;;;;;;5004305;28;20109;-82
2023/11/04 03:06:57;;;;;;;0.60;0.20;;;8.80;99.90;;;;;;4984550;28;20499;-84
2023/11/04 03:09:23;;;;;;;1.52;0.20;;;8.80;99.90;;;;;;5002868;28;20110;-88
2023/11/04 03:11:52;;;;;;;1.85;0.20;;;8.80;99.90;;;;;;5002570;28;20117;-83
2023/11/04 03:14:18;;;;;;;0.43;0.10;;;8.80;99.90;;;;;;4984677;28;20475;-89
2023/11/04 03:16:44;;;;;;;0.88;0.20;;;8.80;99.90;;;;;;5000525;28;20045;-86
2023/11/04 03:19:11;;;;;;;0.65;0.20;;;8.80;99.90;;;;;;5013989;28;20467;-83
2023/11/04 03:21:36;;;;;;;0.80;0.20;;;8.80;99.90;;;;;;4989105;28;20074;-84
2023/11/04 03:24:02;;;;;;;1.25;0.20;;;8.80;99.90;;;;;;5017780;28;20136;-86
2023/11/04 03:26:28;;;;;;;0.73;0.20;;;8.90;99.90;;;;;;4989883;28;20022;-84
2023/11/04 03:28:54;;;;;;;1.23;0.20;;;8.90;99.90;;;;;;5012680;28;20679;-84
2023/11/04 03:31:20;;;;;;;1.33;0.10;;;8.90;99.90;;;;;;4984180;28;20018;-83
2023/11/04 03:33:46;;;;;;;2.13;0.20;;;8.90;99.90;;;;;;5005207;28;20376;-84
2023/11/04 03:36:12;;;;;;;1.60;0.13;;;8.90;99.90;;;;;;4994707;28;20039;-83
2023/11/04 03:38:40;;;;;;;0.52;0.20;;;8.90;99.90;;;;;;5002425;28;20041;-85
2023/11/04 03:41:06;;;;;;;1.02;0.10;;;8.90;99.90;;;;;;5000979;28;20058;-85
2023/11/04 03:43:32;;;;;;;0.85;0.20;;;8.80;99.90;;;;;;4986405;28;20387;-82
2023/11/04 03:45:57;;;;;;;1.30;0.10;;;8.90;99.90;;;;;;5013613;28;20030;-82
2023/11/04 03:48:24;;;;;;;1.20;0.30;;;8.90;99.90;;;;;;4999242;28;20435;-82
2023/11/04 03:50:50;;;;;;;1.00;0.20;;;8.90;99.90;;;;;;4999747;28;20073;-84
2023/11/04 03:53:15;;;;;;;0.70;0.20;;;8.90;99.90;;;;;;4998286;28;20026;-83
2023/11/04 03:55:41;;;;;;;1.88;0.20;;;8.80;99.90;;;;;;4967708;28;20045;-83
2023/11/04 03:58:07;;;;;;;1.35;0.20;;;8.80;99.90;;;;;;4998025;28;20027;-83
2023/11/04 04:00:33;;;;;;;1.33;0.20;;;8.80;99.90;;;;;;4996674;28;20046;-83
2023/11/04 04:03:00;;;;;;;1.00;0.30;;;8.80;99.90;;;;;;5003944;28;20113;-83
2023/11/04 04:05:25;;;;;;;0.60;0.20;;;8.80;99.90;;;;;;5004263;28;20113;-84
2023/11/04 04:07:51;;;;;;;1.20;0.22;;;8.80;99.90;;;;;;4986048;28;20026;-86
2023/11/04 04:10:17;;;;;;;0.52;0.20;;;8.70;99.90;;;;;;4983612;28;20020;-83
2023/11/04 04:12:45;;;;;;;0.82;0.20;;;8.70;99.90;;;;;;5008512;28;20046;-85
2023/11/04 04:15:10;;;;;;;0.90;0.30;;;8.70;99.90;;;;;;4996095;28;20026;-85
2023/11/04 04:17:36;;;;;;;2.03;0.20;;;8.70;99.90;;;;;;5014657;28;20494;-84
2023/11/04 04:20:03;;;;;;;0.77;0.20;;;8.70;99.90;;;;;;4981508;28;20046;-84
2023/11/04 04:22:29;;;;;;;2.70;0.50;;;8.70;99.90;;;;;;5014920;28;20037;-83
2023/11/04 04:24:54;;;;;;;1.48;0.20;;;8.70;99.90;;;;;;5008801;28;20034;-83
2023/11/04 04:27:20;;;;;;;0.90;0.20;;;8.60;99.90;;;;;;5000712;28;20026;-84
2023/11/04 04:29:45;;;;;;;1.52;0.20;;;8.60;99.90;;;;;;4998142;28;20038;-83
2023/11/04 04:32:12;;;;;;;0.80;0.20;;;8.70;99.90;;;;;;4993209;28;20284;-83
2023/11/04 04:34:38;;;;;;;0.40;0.20;;;8.70;99.90;;;;;;4995944;28;20133;-81
2023/11/04 04:37:04;;;;;;;0.40;0.10;;;8.70;99.90;;;;;;5001022;28;20097;-83
2023/11/04 04:39:29;;;;;;;0.40;0.10;;;8.70;99.90;;;;;;4984349;28;20031;-83
2023/11/04 04:41:55;;;;;;;1.27;0.30;;;8.60;99.90;;;;;;4998853;28;20417;-82
2023/11/04 04:44:21;;;;;;;1.02;0.30;;;8.60;99.90;;;;;;5011624;28;20022;-84
2023/11/04 04:46:46;;;;;;;0.73;0.20;;;8.60;99.90;;;;;;5011529;28;20529;-85
2023/11/04 04:49:12;;;;;;;1.80;0.28;;;8.60;99.90;;;;;;4982805;28;20048;-82
2023/11/04 04:51:38;;;;;;;0.82;0.30;;;8.60;99.90;;;;;;4987260;28;20038;-84
2023/11/04 04:54:03;;;;;;;0.88;0.30;;;8.60;99.90;;;;;;4982451;28;20058;-84
2023/11/04 04:56:29;;;;;;;1.05;0.30;;;8.70;99.90;;;;;;5003062;28;20022;-87
2023/11/04 04:58:55;;;;;;;1.52;0.40;;;8.60;99.90;;;;;;4993196;28;20514;-83
2023/11/04 05:01:22;;;;;;;1.55;0.30;;;8.60;99.90;;;;;;4998447;28;20124;-84
2023/11/04 05:03:49;;;;;;;1.58;0.30;;;8.60;99.90;;;;;;4969628;28;20089;-83
2023/11/04 05:06:15;;;;;;;0.70;0.28;;;8.60;99.90;;;;;;5010005;28;20030;-84
2023/11/04 05:08:40;;;;;;;1.27;0.20;;;8.60;99.90;;;;;;5011943;28;20061;-85
2023/11/04 05:11:08;;;;;;;0.73;0.20;;;8.50;99.90;;;;;;5010955;28;20034;-85
2023/11/04 05:13:35;;;;;;;1.02;0.30;;;8.50;99.90;;;;;;5011240;28;20095;-86
2023/11/04 05:16:01;;;;;;;0.88;0.38;;;8.50;99.90;;;;;;5000826;28;20027;-86
2023/11/04 05:18:26;;;;;;;0.77;0.20;;;8.50;99.90;;;;;;4982553;28;20125;-83
2023/11/04 05:20:52;;;;;;;0.98;0.20;;;8.50;99.90;;;;;;5003193;28;20046;-83
2023/11/04 05:23:19;;;;;;;1.50;0.40;;;8.60;99.90;;;;;;4986076;28;20031;-86
2023/11/04 05:25:45;;;;;;;0.68;0.30;;;8.60;99.90;;;;;;5010606;28;20034;-84
2023/11/04 05:28:10;;;;;;;1.55;0.30;;;8.60;99.90;;;;;;5010095;28;20027;-83
2023/11/04 05:30:36;;;;;;;0.77;0.30;;;8.60;99.90;;;;;;5010201;28;20034;-84
2023/11/04 05:33:03;;;;;;;1.42;0.30;;;8.60;99.90;;;;;;4997318;28;20027;-83
2023/11/04 05:35:28;;;;;;;1.48;0.30;;;8.60;99.90;;;;;;4980663;28;20377;-85
2023/11/04 05:37:54;;;;;;;1.58;0.60;;;8.60;99.90;;;;;;4985595;28;20049;-84
2023/11/04 05:40:20;;;;;;;0.50;0.20;;;8.60;99.90;;;;;;5011122;28;20046;-84
2023/11/04 05:42:46;;;;;;;0.32;0.15;;;8.60;99.90;;;;;;5010397;28;20022;-83
2023/11/04 05:45:14;;;;;;;0.75;0.20;;;8.70;99.90;;;;;;5000770;28;20169;-82
2023/11/04 05:47:47;;;;;;;0.35;0.13;;;8.70;99.90;;;;;;4997819;28;20091;-83
2023/11/04 05:50:12;;;;;;;0.60;0.20;;;8.70;99.90;;;;;;5013924;28;20033;-84
2023/11/04 05:52:38;;;;;;;1.58;0.22;;;8.70;99.90;;;;;;4990087;28;20038;-84
2023/11/04 05:55:04;;;;;;;1.10;0.30;;;8.70;99.90;;;;;;4996512;28;20059;-83
2023/11/04 05:57:30;;;;;;;1.15;0.22;;;8.70;99.90;;;;;;4995054;28;20110;-83
2023/11/04 05:59:56;;;;;;;1.63;0.20;;;8.70;99.90;;;;;;5000560;28;20599;-85
2023/11/04 06:02:22;;;;;;;0.80;0.20;;;8.80;99.90;;;;;;4996338;28;20037;-85
2023/11/04 06:04:47;;;;;;;0.93;0.30;;;8.70;99.90;;;;;;5012703;28;20494;-84
2023/11/04 06:07:13;;;;;;;0.80;0.30;;;8.70;99.90;;;;;;5012928;28;20037;-84
2023/11/04 06:09:39;;;;;;;2.17;0.20;;;8.80;99.90;;;;;;4997750;28;20035;-83
2023/11/04 06:12:05;;;;;;;2.53;0.20;;;8.70;99.90;;;;;;5009634;28;20047;-83
2023/11/04 06:14:31;;;;;;;0.77;0.20;;;8.70;99.90;;;;;;4983132;28;20030;-83
2023/11/04 06:16:57;;;;;;;0.73;0.20;;;8.70;99.90;;;;;;5003082;28;20030;-85
2023/11/04 06:19:23;;;;;;;1.63;0.20;;;8.70;99.90;;;;;;5002155;28;20033;-83
2023/11/04 06:21:49;;;;;;;1.02;0.30;;;8.70;99.90;;;;;;4979637;28;20038;-81
2023/11/04 06:24:16;;;;;;;1.15;0.20;;;8.60;99.90;;;;;;4996077;28;20019;-83
2023/11/04 06:26:41;;;;;;;1.08;0.20;;;8.60;99.90;;;;;;5008981;28;20038;-83
2023/11/04 06:29:07;;;;;;;0.77;0.20;;;8.50;99.90;;;;;;4978497;28;20105;-85
2023/11/04 06:31:33;;;;;;;1.90;0.30;;;8.40;99.90;;;;;;5002614;28;20117;-83
2023/11/04 06:33:58;;;;;;;0.80;0.20;;;8.40;99.90;;;;;;5012610;28;20061;-85
2023/11/04 06:36:31;;;;;;;1.08;0.15;;;8.40;99.90;;;;;;5008591;28;20023;-84
2023/11/04 06:38:57;;;;;;;2.05;0.20;;;8.40;99.90;;;;;;5014575;28;20304;-83
2023/11/04 06:41:23;;;;;;;1.58;0.10;;;8.40;99.90;;;;;;5005974;28;20097;-83
2023/11/04 06:43:51;;;;;;;0.40;0.20;;;8.40;99.90;;;;;;5016358;28;20501;-85
2023/11/04 06:46:17;;;;;;;2.25;0.20;;;8.50;99.90;;;;;;5007719;28;20022;-85
2023/11/04 06:48:44;;;;;;;1.33;0.20;;;8.50;99.90;;;;;;4982897;28;20398;-84
2023/11/04 06:51:10;;;;;;;0.60;0.10;;;8.50;99.90;;;;;;4985330;28;20030;-82
2023/11/04 06:53:35;;;;;;;1.48;0.20;;;8.50;99.90;;;;;;5001495;28;20041;-82
2023/11/04 06:56:02;;;;;;;1.73;0.30;;;8.50;99.90;;;;;;4989650;28;20023;-83
2023/11/04 06:58:28;;;;;;;0.85;0.20;;;8.60;99.90;;;;;;4983540;28;20022;-83
2023/11/04 07:00:55;;;;;;;1.13;0.20;;;8.60;99.90;;;;;;5009391;28;20552;-85
2023/11/04 07:03:21;;;;;;;1.67;0.10;;;8.60;99.90;;;;;;4988652;28;20025;-84
2023/11/04 07:05:47;;;;;;;1.77;0.20;;;8.60;99.90;;;;;;4990571;28;20042;-85
2023/11/04 07:08:14;;;;;;;1.88;0.20;;;8.70;99.90;;;;;;4998155;28;20038;-82
2023/11/04 07:10:43;;;;;;;0.85;0.20;;;8.80;99.90;;;;;;5007757;28;20069;-86
2023/11/04 07:13:12;;;;;;;3.75;0.30;;;8.80;99.90;;;;;;5014227;28;20105;-85
2023/11/04 07:15:43;;;;;;;2.65;0.63;;;8.80;99.90;;;;;;5001433;28;20541;-88
2023/11/04 07:18:10;;;;;;;1.10;0.20;;;8.80;99.90;;;;;;5000463;28;20081;-84
2023/11/04 07:20:37;;;;;;;2.35;0.20;;;8.80;99.90;;;;;;4997984;28;20049;-84
2023/11/04 07:23:03;;;;;;;4.28;0.20;;;8.70;99.90;;;;;;5002946;28;20405;-87
2023/11/04 07:25:30;;;;;;;1.90;0.28;;;8.70;99.90;;;;;;4997727;28;20027;-87
2023/11/04 07:27:59;;;;;;;0.70;0.30;;;8.60;99.90;;;;;;5010862;28;20510;-88
2023/11/04 07:30:25;;;;;;;2.25;0.20;;;8.70;99.90;;;;;;4984748;28;20090;-86
2023/11/04 07:32:51;;;;;;;2.05;0.28;;;8.80;99.90;;;;;;4986904;28;20031;-89
2023/11/04 07:35:17;;;;;;;0.77;0.20;;;8.80;99.90;;;;;;4999913;28;20125;-86
2023/11/04 07:37:43;;;;;;;1.33;0.30;;;8.80;99.90;;;;;;5001624;28;20130;-89
2023/11/04 07:40:09;;;;;;;1.15;0.20;;;8.90;99.90;;;;;;5004351;28;20072;-88
2023/11/04 07:42:35;;;;;;;0.80;0.20;;;8.90;99.90;;;;;;5004710;28;20027;-85
2023/11/04 07:45:01;;;;;;;1.35;0.20;;;8.90;99.90;;;;;;5013169;28;20054;-86
2023/11/04 07:47:27;;;;;;;2.13;0.20;;;8.90;99.90;;;;;;4985579;28;20065;-83
2023/11/04 07:49:53;;;;;;;0.95;0.20;;;8.90;99.90;;;;;;5001944;28;20418;-82
2023/11/04 07:52:18;;;;;;;0.82;0.10;;;8.90;99.90;;;;;;5000161;28;20045;-88
2023/11/04 07:54:44;;;;;;;3.63;0.20;;;8.90;99.90;;;;;;4978396;28;20022;-86
2023/11/04 07:57:10;;;;;;;0.50;0.10;;;8.90;99.90;;;;;;4985259;28;20034;-85
2023/11/04 07:59:36;;;;;;;0.98;0.25;;;8.90;99.90;;;;;;4999583;28;20050;-87
2023/11/04 08:02:03;;;;;;;1.58;0.20;;;9.00;99.90;;;;;;5008702;28;20039;-82
2023/11/04 08:04:29;;;;;;;0.68;0.10;;;9.00;99.90;;;;;;4981543;28;20025;-87
2023/11/04 08:06:54;;;;;;;2.00;0.20;;;9.10;99.90;;;;;;5011525;28;20117;-84
2023/11/04 08:09:20;;;;;;;0.80;0.10;;;9.10;99.90;;;;;;4986576;28;20046;-85
2023/11/04 08:11:46;;;;;;;0.65;0.13;;;9.20;99.90;;;;;;5012512;28;20562;-84
2023/11/04 08:14:12;;;;;;;0.90;0.17;;;9.30;99.90;;;;;;4998645;28;20517;-85
2023/11/04 08:16:38;;;;;;;0.57;0.10;;;9.30;99.90;;;;;;4980857;28;20073;-84
2023/11/04 08:19:05;;;;;;;1.40;0.10;;;9.40;99.90;;;;;;5014980;28;20034;-88
2023/11/04 08:21:32;;;;;;;0.70;0.20;;;9.50;99.90;;;;;;4977456;28;20045;-83
2023/11/04 08:23:58;;;;;;;0.75;0.20;;;9.60;99.90;;;;;;4990769;28;20039;-86
2023/11/04 08:26:25;;;;;;;0.82;0.10;;;9.60;99.90;;;;;;4999808;28;20080;-83
2023/11/04 08:28:51;;;;;;;0.55;0.10;;;9.60;99.90;;;;;;4999058;28;20510;-84
2023/11/04 08:31:18;;;;;;;0.45;0.10;;;9.70;99.90;;;;;;4981674;28;20031;-85
2023/11/04 08:33:44;;;;;;;0.47;0.10;;;9.70;99.90;;;;;;5000201;28;20023;-84
2023/11/04 08:36:10;;;;;;;1.30;0.30;;;9.70;99.90;;;;;;4983438;28;20112;-84
2023/11/04 08:38:36;;;;;;;0.45;0.10;;;10.00;99.90;;;;;;4996846;28;20033;-87
2023/11/04 08:41:03;;;;;;;1.38;0.10;;;10.10;99.90;;;;;;5010609;28;20140;-85
2023/11/04 08:43:31;;;;;;;1.02;0.10;;;10.10;99.90;;;;;;4991299;28;20030;-85
2023/11/04 08:45:57;;;;;;;0.30;0.10;;;10.20;99.90;;;;;;5000194;28;20034;-87
2023/11/04 08:48:22;;;;;;;2.75;0.08;;;10.10;99.90;;;;;;5002783;28;20030;-86
2023/11/04 08:50:49;;;;;;;0.90;0.05;;;10.20;99.90;;;;;;5000795;28;20031;-89
2023/11/04 08:53:14;;;;;;;0.52;0.10;;;10.10;99.90;;;;;;4980273;28;20339;-85
2023/11/04 08:55:40;;;;;;;0.60;0.15;;;10.10;99.90;;;;;;4998457;28;20034;-87
2023/11/04 08:58:07;;;;;;;0.13;0.10;;;10.00;99.90;;;;;;4978012;28;20019;-83
2023/11/04 09:00:34;;;;;;;0.35;0.05;;;10.00;99.90;;;;;;4963507;28;20081;-87
2023/11/04 09:03:00;;;;;;;0.10;0.00;;;9.90;99.90;;;;;;4966486;28;20018;-89
2023/11/04 09:05:27;;;;;;;0.40;0.08;;;9.90;99.90;;;;;;5007410;28;20038;-86
2023/11/04 09:07:53;;;;;;;0.20;0.00;;;9.90;99.90;;;;;;4993335;28;20506;-83
2023/11/04 09:10:19;;;;;;;0.32;0.00;;;10.00;99.90;;;;;;4998287;28;20027;-84
2023/11/04 09:12:47;;;;;;;1.05;0.00;;;10.00;99.90;;;;;;5005994;28;20030;-85
2023/11/04 09:15:13;;;;;;;0.17;0.00;;;9.90;99.90;;;;;;4979577;28;20035;-86
2023/11/04 09:17:39;;;;;;;0.30;0.10;;;10.00;99.90;;;;;;5000035;28;20407;-83
2023/11/04 09:20:09;;;;;;;0.20;0.20;;;10.10;99.90;;;;;;4994678;28;20048;-87
2023/11/04 09:22:36;;;;;;;0.40;0.10;;;10.30;99.90;;;;;;4998396;28;20030;-85
2023/11/04 09:25:03;;;;;;;0.20;0.00;;;10.30;99.90;;;;;;4997163;28;20303;-83
2023/11/04 09:27:29;;;;;;;0.38;0.03;;;10.40;99.90;;;;;;5008270;28;20148;-84
2023/11/04 09:29:55;;;;;;;0.03;0.00;;;10.60;99.90;;;;;;4994456;28;20027;-85
2023/11/04 09:32:21;;;;;;;0.30;0.00;;;10.90;99.90;;;;;;4975905;28;20148;-84
2023/11/04 09:34:47;;;;;;;0.77;0.00;;;11.00;99.90;;;;;;4978749;28;20113;-82
2023/11/04 09:37:13;;;;;;;0.30;0.00;;;10.90;99.90;;;;;;4977337;28;20088;-85
2023/11/04 09:39:39;;;;;;;0.50;0.05;;;10.90;99.90;;;;;;4990554;28;20031;-83
2023/11/04 09:42:11;;;;;;;0.75;0.10;;;10.80;99.90;;;;;;4992902;28;20426;-84
2023/11/04 09:44:37;;;;;;;0.20;0.00;;;10.80;99.90;;;;;;4976231;28;20554;-83
2023/11/04 09:47:03;;;;;;;0.73;0.22;;;11.20;99.90;;;;;;5004760;28;20073;-86
2023/11/04 09:49:29;;;;;;;0.30;0.00;;;11.40;99.90;;;;;;4976237;28;20419;-83
2023/11/04 09:51:56;;;;;;;1.15;0.00;;;11.60;99.90;;;;;;4974109;28;20026;-84
2023/11/04 09:54:22;;;;;;;0.22;0.00;;;11.60;99.90;;;;;;4997095;28;20510;-84
2023/11/04 09:56:48;;;;;;;0.70;0.00;;;11.50;99.90;;;;;;5007870;28;20109;-86
2023/11/04 09:59:14;;;;;;;0.40;0.00;;;11.50;99.90;;;;;;4989448;28;20178;-83
2023/11/04 10:01:40;;;;;;;0.10;0.00;;;11.50;99.90;;;;;;4974936;28;20057;-83
2023/11/04 10:04:07;;;;;;;0.55;0.10;;;11.50;99.90;;;;;;4981335;28;20041;-84
2023/11/04 10:06:32;;;;;;;0.47;0.05;;;11.60;99.90;;;;;;4973419;28;20047;-86
2023/11/04 10:09:00;;;;;;;0.90;0.00;;;11.70;99.90;;;;;;4976114;28;20442;-85
2023/11/04 10:11:28;;;;;;;0.40;0.00;;;11.70;99.90;;;;;;4993885;28;20117;-82
2023/11/04 10:13:54;;;;;;;0.10;0.00;;;11.70;99.90;;;;;;4963999;28;20066;-84
2023/11/04 10:16:19;;;;;;;0.47;0.00;;;11.70;99.90;;;;;;4980594;28;20042;-85
2023/11/04 10:18:47;;;;;;;0.55;0.00;;;11.60;99.90;;;;;;5008567;28;20022;-85
2023/11/04 10:21:12;;;;;;;1.13;0.10;;;11.60;99.90;;;;;;5004776;28;20407;-83
2023/11/04 10:23:38;;;;;;;0.28;0.00;;;11.60;99.90;;;;;;4986607;28;20030;-83
2023/11/04 10:26:04;;;;;;;1.40;0.00;;;11.60;99.90;;;;;;4990455;28;20030;-83
2023/11/04 10:28:35;;;;;;;0.50;0.00;;;11.70;99.90;;;;;;4958545;28;20023;-84
2023/11/04 10:31:03;;;;;;;0.10;0.00;;;11.70;99.90;;;;;;4958260;28;20328;-84
2023/11/04 10:33:34;;;;;;;0.50;0.10;;;11.60;99.90;;;;;;4994174;28;20117;-84
2023/11/04 10:36:02;;;;;;;0.20;0.00;;;11.60;99.90;;;;;;5003967;28;20058;-84
2023/11/04 10:38:29;;;;;;;0.80;0.10;;;11.40;99.90;;;;;;4989110;28;20063;-84
2023/11/04 10:40:55;;;;;;;1.23;0.00;;;11.40;99.90;;;;;;4994360;28;20038;-84
2023/11/04 10:43:25;;;;;;;0.45;0.00;;;11.40;99.90;;;;;;4979119;28;20367;-84
2023/11/04 10:46:02;;;;;;;0.30;0.00;;;11.40;99.90;;;;;;4992022;28;20053;-87
2023/11/04 10:48:51;;;;;;;0.15;0.00;;;11.40;99.90;;;;;;5005089;28;20290;-83
2023/11/04 10:51:22;;;;;;;0.13;0.00;;;11.40;99.90;;;;;;4958219;28;20038;-83
2023/11/04 10:54:11;;;;;;;0.32;0.00;;;11.40;99.90;;;;;;4987672;28;20390;-84
2023/11/04 10:56:43;;;;;;;0.40;0.10;;;11.30;99.90;;;;;;4974624;28;20050;-83
2023/11/04 10:59:51;;;;;;;0.90;0.00;;;11.10;99.90;;;;;;4991267;28;20072;-84
2023/11/04 11:02:18;;;;;;;0.52;0.00;;;11.10;99.90;;;;;;4990042;28;20569;-84
2023/11/04 11:04:46;;;;;;;0.20;0.00;;;11.10;99.90;;;;;;4987544;28;20026;-83
2023/11/04 11:07:18;;;;;;;0.80;0.10;;;11.10;99.90;;;;;;4959936;28;20032;-84
2023/11/04 11:09:45;;;;;;;0.30;0.00;;;11.10;99.90;;;;;;4956085;28;20065;-83
2023/11/04 11:12:25;;;;;;;0.30;0.00;;;11.10;99.90;;;;;;4978549;28;20439;-82
2023/11/04 11:14:52;;;;;;;0.40;0.10;;;11.20;99.90;;;;;;4990875;28;20394;-84
2023/11/04 11:17:29;;;;;;;0.45;0.00;;;11.30;99.90;;;;;;4994392;28;20027;-83
2023/11/04 11:19:56;;;;;;;0.20;0.00;;;11.30;99.90;;;;;;5002584;28;20034;-85
2023/11/04 11:22:26;;;;;;;0.20;0.00;;;11.30;99.90;;;;;;4995005;28;20085;-83
2023/11/04 11:24:56;;;;;;;0.15;0.00;;;11.40;99.90;;;;;;5007890;28;20019;-84
2023/11/04 11:27:22;;;;;;;0.15;0.00;;;11.30;99.90;;;;;;4983433;28;20088;-83
2023/11/04 11:29:49;;;;;;;0.90;0.10;;;11.30;99.90;;;;;;5009092;28;20027;-81
2023/11/04 11:32:20;;;;;;;0.20;0.00;;;11.40;99.90;;;;;;5006791;28;20470;-84
2023/11/04 11:34:55;;;;;;;0.82;0.10;;;11.40;99.90;;;;;;4996711;28;20098;-84
2023/11/04 11:37:25;;;;;;;0.20;0.05;;;11.20;99.90;;;;;;4995517;28;20210;-85
2023/11/04 11:39:51;;;;;;;;;;;11.30;99.90;;;;;;5009243;28;20027;-87
2023/11/04 11:42:24;;;;;;;0.17;0.00;;;11.20;99.90;;;;;;5009180;28;19914;-87
2023/11/04 11:44:50;;;;;;;1.65;0.00;;;11.20;99.90;;;;;;4979339;28;20100;-85
2023/11/04 11:47:18;;;;;;;0.57;0.10;;;11.20;99.90;;;;;;5007441;28;20137;-86
2023/11/04 11:49:44;;;;;;;0.20;0.10;;;11.10;99.90;;;;;;5009370;28;20030;-87
2023/11/04 11:52:10;;;;;;;1.20;0.00;;;11.10;99.90;;;;;;4977315;28;20514;-86
2023/11/04 11:54:39;;;;;;;1.15;0.00;;;11.10;99.90;;;;;;5011695;28;20119;-87
2023/11/04 11:57:05;;;;;;;0.68;0.00;;;11.00;99.90;;;;;;5004318;28;20037;-89
2023/11/04 11:59:34;;;;;;;0.75;0.10;;;11.00;99.90;;;;;;5006359;28;20046;-88
2023/11/04 12:02:00;;;;;;;1.85;0.00;;;10.90;99.90;;;;;;4982641;28;20038;-92
2023/11/04 12:04:26;;;;;;;0.93;0.00;;;10.70;99.90;;;;;;4962331;28;20038;-85
2023/11/04 12:06:53;;;;;;;0.28;0.00;;;10.60;99.90;;;;;;4980289;28;20048;-90
2023/11/04 12:09:24;;;;;;;0.68;0.10;;;10.50;99.90;;;;;;4996554;28;20393;-83
2023/11/04 12:11:51;;;;;;;0.80;0.00;;;10.40;99.90;;;;;;4997583;28;20030;-90
2023/11/04 12:14:17;;;;;;;0.93;0.00;;;10.40;99.90;;;;;;4995981;28;20139;-88
2023/11/04 12:16:45;;;;;;;0.10;0.00;;;10.40;99.90;;;;;;4979501;28;20443;-84
2023/11/04 12:19:11;;;;;;;0.35;0.00;;;10.40;99.90;;;;;;4996630;28;20447;-87
2023/11/04 12:21:37;;;;;;;0.50;0.00;;;10.40;99.90;;;;;;4978556;28;20045;-85
2023/11/04 12:24:04;;;;;;;0.10;0.00;;;10.30;99.90;;;;;;4979473;28;20057;-86
2023/11/04 12:26:32;;;;;;;1.20;0.00;;;10.30;99.90;;;;;;4980560;28;20467;-84
2023/11/04 12:28:59;;;;;;;0.63;0.03;;;10.20;99.90;;;;;;4980878;28;20041;-87
2023/11/04 12:31:27;;;;;;;1.30;0.00;;;10.30;99.90;;;;;;4979591;28;20441;-83
2023/11/04 12:33:53;;;;;;;0.32;0.00;;;10.30;99.90;;;;;;4980634;28;20096;-84
2023/11/04 12:36:19;;;;;;;0.75;0.10;;;10.40;99.90;;;;;;4979599;28;20034;-82
2023/11/04 12:38:46;;;;;;;0.73;0.00;;;10.40;99.90;;;;;;4979329;28;20134;-84
2023/11/04 12:41:13;;;;;;;0.75;0.10;;;10.30;99.90;;;;;;4980382;28;20046;-88
2023/11/04 12:43:39;;;;;;;0.40;0.00;;;10.40;99.90;;;;;;4980895;28;20034;-89
2023/11/04 12:46:08;;;;;;;0.57;0.00;;;10.30;99.90;;;;;;4978949;28;20038;-83
2023/11/04 12:48:34;;;;;;;1.88;0.10;;;10.30;99.90;;;;;;4979136;28;20100;-86
2023/11/04 12:51:01;;;;;;;0.68;0.13;;;10.30;99.90;;;;;;4980121;28;20045;-88